sensor_id;sensor_type;location;lat;lon;timestamp;temperature;humidity
17954;DHT22;9102;53.548;9.926;2023-04-21T00:00:28;7.90;99.90
17954;DHT22;9102;53.548;9.926;2023-04-21T00:02:56;7.90;99.90
17954;DHT22;9102;53.548;9.926;2023-04-21T00:05:26;8.00;99.90
17954;DHT22;9102;53.548;9.926;2023-04-21T00:07:53;8.00;99.90
17954;DHT22;9102;53.548;9.926;2023-04-21T00:10:19;8.00;99.90
17954;DHT22;9102;53.548;9.926;2023-04-21T00:12:46;8.00;99.90
17954;DHT22;9102;53.548;9.926;2023-04-21T00:15:13;8.10;99.90
17954;DHT22;9102;53.548;9.926;2023-04-21T00:17:40;8.00;99.90
17954;DHT22;9102;53.548;9.926;2023-04-21T00:20:08;8.10;99.90
17954;DHT22;9102;53.548;9.926;2023-04-21T00:22:36;8.10;99.90
17954;DHT22;9102;53.548;9.926;2023-04-21T00:25:04;8.10;99.90
17954;DHT22;9102;53.548;9.926;2023-04-21T00:27:31;8.10;99.90
17954;DHT22;9102;53.548;9.926;2023-04-21T00:29:58;8.20;99.90
17954;DHT22;9102;53.548;9.926;2023-04-21T00:32:25;8.10;99.90
17954;DHT22;9102;53.548;9.926;2023-04-21T00:34:52;8.10;99.90
17954;DHT22;9102;53.548;9.926;2023-04-21T00:37:18;8.10;99.90
17954;DHT22;9102;53.548;9.926;2023-04-21T00:39:47;8.10;99.90
17954;DHT22;9102;53.548;9.926;2023-04-21T00:42:14;8.10;99.90
17954;DHT22;9102;53.548;9.926;2023-04-21T00:44:41;8.00;99.90
17954;DHT22;9102;53.548;9.926;2023-04-21T00:47:09;8.10;99.90
17954;DHT22;9102;53.548;9.926;2023-04-21T00:49:36;8.10;99.90
17954;DHT22;9102;53.548;9.926;2023-04-21T00:52:03;8.10;99.90
17954;DHT22;9102;53.548;9.926;2023-04-21T00:54:30;8.00;99.90
17954;DHT22;9102;53.548;9.926;2023-04-21T00:56:59;8.10;99.90
17954;DHT22;9102;53.548;9.926;2023-04-21T00:59:26;8.10;99.90
17954;DHT22;9102;53.548;9.926;2023-04-21T01:01:53;8.10;99.90
17954;DHT22;9102;53.548;9.926;2023-04-21T01:04:20;8.10;99.90
17954;DHT22;9102;53.548;9.926;2023-04-21T01:06:47;8.20;99.90
17954;DHT22;9102;53.548;9.926;2023-04-21T01:09:15;8.20;99.90
17954;DHT22;9102;53.548;9.926;2023-04-21T01:14:37;8.20;99.90
17954;DHT22;9102;53.548;9.926;2023-04-21T01:17:05;8.20;99.90
17954;DHT22;9102;53.548;9.926;2023-04-21T01:19:34;8.20;99.90
17954;DHT22;9102;53.548;9.926;2023-04-21T01:22:02;8.10;99.90
17954;DHT22;9102;53.548;9.926;2023-04-21T01:24:37;8.10;99.90
17954;DHT22;9102;53.548;9.926;2023-04-21T01:27:08;8.10;99.90
17954;DHT22;9102;53.548;9.926;2023-04-21T01:29:36;8.10;99.90
17954;DHT22;9102;53.548;9.926;2023-04-21T01:32:05;8.10;99.90
17954;DHT22;9102;53.548;9.926;2023-04-21T01:34:32;8.10;99.90
17954;DHT22;9102;53.548;9.926;2023-04-21T01:36:59;8.00;99.90
17954;DHT22;9102;53.548;9.926;2023-04-21T01:39:27;8.00;99.90
17954;DHT22;9102;53.548;9.926;2023-04-21T01:41:55;8.00;99.90
17954;DHT22;9102;53.548;9.926;2023-04-21T01:44:24;8.00;99.90
17954;DHT22;9102;53.548;9.926;2023-04-21T01:46:52;8.10;99.90
17954;DHT22;9102;53.548;9.926;2023-04-21T01:49:19;8.10;99.90
17954;DHT22;9102;53.548;9.926;2023-04-21T01:51:46;8.10;99.90
17954;DHT22;9102;53.548;9.926;2023-04-21T01:54:13;8.10;99.90
17954;DHT22;9102;53.548;9.926;2023-04-21T01:56:41;8.10;99.90
17954;DHT22;9102;53.548;9.926;2023-04-21T01:59:08;8.10;99.90
17954;DHT22;9102;53.548;9.926;2023-04-21T02:01:35;8.10;99.90
17954;DHT22;9102;53.548;9.926;2023-04-21T02:04:02;8.10;99.90
17954;DHT22;9102;53.548;9.926;2023-04-21T02:06:29;8.00;99.90
17954;DHT22;9102;53.548;9.926;2023-04-21T02:08:57;8.00;99.90
17954;DHT22;9102;53.548;9.926;2023-04-21T02:11:24;8.00;99.90
17954;DHT22;9102;53.548;9.926;2023-04-21T02:13:52;8.10;99.90
17954;DHT22;9102;53.548;9.926;2023-04-21T02:16:21;8.10;99.90
17954;DHT22;9102;53.548;9.926;2023-04-21T02:18:50;8.10;99.90
17954;DHT22;9102;53.548;9.926;2023-04-21T02:21:18;8.10;99.90
17954;DHT22;9102;53.548;9.926;2023-04-21T02:23:45;8.00;99.90
17954;DHT22;9102;53.548;9.926;2023-04-21T02:26:12;8.10;99.90
17954;DHT22;9102;53.548;9.926;2023-04-21T02:28:38;8.00;99.90
17954;DHT22;9102;53.548;9.926;2023-04-21T02:31:07;8.00;99.90
17954;DHT22;9102;53.548;9.926;2023-04-21T02:33:34;8.00;99.90
17954;DHT22;9102;53.548;9.926;2023-04-21T02:36:01;8.00;99.90
17954;DHT22;9102;53.548;9.926;2023-04-21T02:38:28;8.00;99.90
17954;DHT22;9102;53.548;9.926;2023-04-21T02:40:55;7.90;99.90
17954;DHT22;9102;53.548;9.926;2023-04-21T02:43:22;7.80;99.90
17954;DHT22;9102;53.548;9.926;2023-04-21T02:45:49;7.90;99.90
17954;DHT22;9102;53.548;9.926;2023-04-21T02:48:17;8.00;99.90
17954;DHT22;9102;53.548;9.926;2023-04-21T02:50:47;8.10;99.90
17954;DHT22;9102;53.548;9.926;2023-04-21T02:53:14;8.10;99.90
17954;DHT22;9102;53.548;9.926;2023-04-21T02:55:41;8.10;99.90
17954;DHT22;9102;53.548;9.926;2023-04-21T02:58:08;8.10;99.90
17954;DHT22;9102;53.548;9.926;2023-04-21T03:00:35;8.10;99.90
17954;DHT22;9102;53.548;9.926;2023-04-21T03:03:02;8.10;99.90
17954;DHT22;9102;53.548;9.926;2023-04-21T03:05:31;8.10;99.90
17954;DHT22;9102;53.548;9.926;2023-04-21T03:07:58;8.10;99.90
17954;DHT22;9102;53.548;9.926;2023-04-21T03:10:25;8.00;99.90
17954;DHT22;9102;53.548;9.926;2023-04-21T03:12:52;8.00;99.90
17954;DHT22;9102;53.548;9.926;2023-04-21T03:15:21;8.00;99.90
17954;DHT22;9102;53.548;9.926;2023-04-21T03:17:48;8.00;99.90
17954;DHT22;9102;53.548;9.926;2023-04-21T03:20:15;8.00;99.90
17954;DHT22;9102;53.548;9.926;2023-04-21T03:22:43;8.10;99.90
17954;DHT22;9102;53.548;9.926;2023-04-21T03:25:10;8.10;99.90
17954;DHT22;9102;53.548;9.926;2023-04-21T03:27:37;8.20;99.90
17954;DHT22;9102;53.548;9.926;2023-04-21T03:30:05;8.10;99.90
17954;DHT22;9102;53.548;9.926;2023-04-21T03:32:32;8.10;99.90
17954;DHT22;9102;53.548;9.926;2023-04-21T03:34:59;8.10;99.90
17954;DHT22;9102;53.548;9.926;2023-04-21T03:37:26;8.10;99.90
17954;DHT22;9102;53.548;9.926;2023-04-21T03:39:54;8.20;99.90
17954;DHT22;9102;53.548;9.926;2023-04-21T03:42:21;8.20;99.90
17954;DHT22;9102;53.548;9.926;2023-04-21T03:44:51;8.10;99.90
17954;DHT22;9102;53.548;9.926;2023-04-21T03:47:17;8.20;99.90
17954;DHT22;9102;53.548;9.926;2023-04-21T03:49:44;8.20;99.90
17954;DHT22;9102;53.548;9.926;2023-04-21T03:52:14;8.10;99.90
17954;DHT22;9102;53.548;9.926;2023-04-21T03:54:42;8.20;99.90
17954;DHT22;9102;53.548;9.926;2023-04-21T03:57:12;8.20;99.90
17954;DHT22;9102;53.548;9.926;2023-04-21T03:59:39;8.20;99.90
17954;DHT22;9102;53.548;9.926;2023-04-21T04:02:08;8.20;99.90
17954;DHT22;9102;53.548;9.926;2023-04-21T04:04:44;8.20;99.90
17954;DHT22;9102;53.548;9.926;2023-04-21T04:07:11;8.20;99.90
17954;DHT22;9102;53.548;9.926;2023-04-21T04:09:38;8.20;99.90
17954;DHT22;9102;53.548;9.926;2023-04-21T04:12:05;8.30;99.90
17954;DHT22;9102;53.548;9.926;2023-04-21T04:14:33;8.20;99.90
17954;DHT22;9102;53.548;9.926;2023-04-21T04:17:00;8.20;99.90
17954;DHT22;9102;53.548;9.926;2023-04-21T04:19:29;8.20;99.90
17954;DHT22;9102;53.548;9.926;2023-04-21T04:21:57;8.20;99.90
17954;DHT22;9102;53.548;9.926;2023-04-21T04:24:25;8.20;99.90
17954;DHT22;9102;53.548;9.926;2023-04-21T04:26:52;8.30;99.90
17954;DHT22;9102;53.548;9.926;2023-04-21T04:29:19;8.30;99.90
17954;DHT22;9102;53.548;9.926;2023-04-21T04:31:48;8.30;99.90
17954;DHT22;9102;53.548;9.926;2023-04-21T04:34:15;8.40;99.90
17954;DHT22;9102;53.548;9.926;2023-04-21T04:36:42;8.30;99.90
17954;DHT22;9102;53.548;9.926;2023-04-21T04:39:09;8.30;99.90
17954;DHT22;9102;53.548;9.926;2023-04-21T04:41:37;8.20;99.90
17954;DHT22;9102;53.548;9.926;2023-04-21T04:44:03;8.20;99.90
17954;DHT22;9102;53.548;9.926;2023-04-21T04:46:31;8.20;99.90
17954;DHT22;9102;53.548;9.926;2023-04-21T04:49:02;8.30;99.90
17954;DHT22;9102;53.548;9.926;2023-04-21T04:51:29;8.20;99.90
17954;DHT22;9102;53.548;9.926;2023-04-21T04:53:57;8.30;99.90
17954;DHT22;9102;53.548;9.926;2023-04-21T04:56:26;8.30;99.90
17954;DHT22;9102;53.548;9.926;2023-04-21T04:58:59;8.30;99.90
17954;DHT22;9102;53.548;9.926;2023-04-21T05:01:28;8.40;99.90
17954;DHT22;9102;53.548;9.926;2023-04-21T05:03:56;8.40;99.90
17954;DHT22;9102;53.548;9.926;2023-04-21T05:06:24;8.40;99.90
17954;DHT22;9102;53.548;9.926;2023-04-21T05:08:53;8.50;99.90
17954;DHT22;9102;53.548;9.926;2023-04-21T05:11:20;8.50;99.90
17954;DHT22;9102;53.548;9.926;2023-04-21T05:13:47;8.50;99.90
17954;DHT22;9102;53.548;9.926;2023-04-21T05:16:14;8.60;99.90
17954;DHT22;9102;53.548;9.926;2023-04-21T05:18:41;8.60;99.90
17954;DHT22;9102;53.548;9.926;2023-04-21T05:21:08;8.70;99.90
17954;DHT22;9102;53.548;9.926;2023-04-21T05:23:37;8.70;99.90
17954;DHT22;9102;53.548;9.926;2023-04-21T05:26:04;8.70;99.90
17954;DHT22;9102;53.548;9.926;2023-04-21T05:28:37;8.80;99.90
17954;DHT22;9102;53.548;9.926;2023-04-21T05:31:05;8.70;99.90
17954;DHT22;9102;53.548;9.926;2023-04-21T05:33:32;8.80;99.90
17954;DHT22;9102;53.548;9.926;2023-04-21T05:35:59;8.90;99.90
17954;DHT22;9102;53.548;9.926;2023-04-21T05:38:26;8.90;99.90
17954;DHT22;9102;53.548;9.926;2023-04-21T05:40:55;8.90;99.90
17954;DHT22;9102;53.548;9.926;2023-04-21T05:43:22;9.00;99.90
17954;DHT22;9102;53.548;9.926;2023-04-21T05:45:52;9.00;99.90
17954;DHT22;9102;53.548;9.926;2023-04-21T05:48:19;9.10;99.90
17954;DHT22;9102;53.548;9.926;2023-04-21T05:50:46;9.10;99.90
17954;DHT22;9102;53.548;9.926;2023-04-21T05:53:13;9.10;99.90
17954;DHT22;9102;53.548;9.926;2023-04-21T05:55:40;9.30;99.90
17954;DHT22;9102;53.548;9.926;2023-04-21T05:58:08;9.30;99.90
17954;DHT22;9102;53.548;9.926;2023-04-21T06:00:35;9.40;99.90
17954;DHT22;9102;53.548;9.926;2023-04-21T06:03:03;9.40;99.90
17954;DHT22;9102;53.548;9.926;2023-04-21T06:05:31;9.50;99.90
17954;DHT22;9102;53.548;9.926;2023-04-21T06:07:58;9.70;99.90
17954;DHT22;9102;53.548;9.926;2023-04-21T06:10:25;9.60;99.90
17954;DHT22;9102;53.548;9.926;2023-04-21T06:12:52;9.60;99.90
17954;DHT22;9102;53.548;9.926;2023-04-21T06:15:21;9.70;99.90
17954;DHT22;9102;53.548;9.926;2023-04-21T06:17:52;9.80;99.90
17954;DHT22;9102;53.548;9.926;2023-04-21T06:20:19;9.80;99.90
17954;DHT22;9102;53.548;9.926;2023-04-21T06:22:45;9.90;99.90
17954;DHT22;9102;53.548;9.926;2023-04-21T06:25:12;10.00;99.90
17954;DHT22;9102;53.548;9.926;2023-04-21T06:27:39;10.00;99.90
17954;DHT22;9102;53.548;9.926;2023-04-21T06:30:07;10.10;99.90
17954;DHT22;9102;53.548;9.926;2023-04-21T06:32:35;10.10;99.90
17954;DHT22;9102;53.548;9.926;2023-04-21T06:35:03;10.20;99.90
17954;DHT22;9102;53.548;9.926;2023-04-21T06:37:30;10.20;99.90
17954;DHT22;9102;53.548;9.926;2023-04-21T06:39:57;10.30;99.90
17954;DHT22;9102;53.548;9.926;2023-04-21T06:42:24;10.40;99.90
17954;DHT22;9102;53.548;9.926;2023-04-21T06:44:51;10.40;99.90
17954;DHT22;9102;53.548;9.926;2023-04-21T06:47:19;10.50;99.90
17954;DHT22;9102;53.548;9.926;2023-04-21T06:49:48;10.50;99.90
17954;DHT22;9102;53.548;9.926;2023-04-21T06:52:15;10.60;99.90
17954;DHT22;9102;53.548;9.926;2023-04-21T06:54:41;10.60;99.90
17954;DHT22;9102;53.548;9.926;2023-04-21T06:57:08;10.70;99.90
17954;DHT22;9102;53.548;9.926;2023-04-21T06:59:36;10.80;99.90
17954;DHT22;9102;53.548;9.926;2023-04-21T07:02:03;10.80;99.90
17954;DHT22;9102;53.548;9.926;2023-04-21T07:04:29;10.80;99.90
17954;DHT22;9102;53.548;9.926;2023-04-21T07:06:58;10.90;99.90
17954;DHT22;9102;53.548;9.926;2023-04-21T07:09:25;11.00;99.90
17954;DHT22;9102;53.548;9.926;2023-04-21T07:11:53;11.10;99.90
17954;DHT22;9102;53.548;9.926;2023-04-21T07:14:19;11.10;99.90
17954;DHT22;9102;53.548;9.926;2023-04-21T07:16:46;11.20;99.90
17954;DHT22;9102;53.548;9.926;2023-04-21T07:19:13;11.20;99.90
17954;DHT22;9102;53.548;9.926;2023-04-21T07:21:40;11.20;99.90
17954;DHT22;9102;53.548;9.926;2023-04-21T07:24:11;11.40;99.90
17954;DHT22;9102;53.548;9.926;2023-04-21T07:26:38;11.30;99.90
17954;DHT22;9102;53.548;9.926;2023-04-21T07:29:06;11.50;99.90
17954;DHT22;9102;53.548;9.926;2023-04-21T07:31:33;11.50;99.90
17954;DHT22;9102;53.548;9.926;2023-04-21T07:34:00;11.60;99.90
17954;DHT22;9102;53.548;9.926;2023-04-21T07:36:27;11.60;99.90
17954;DHT22;9102;53.548;9.926;2023-04-21T07:38:55;11.70;99.90
17954;DHT22;9102;53.548;9.926;2023-04-21T07:41:23;11.70;99.90
17954;DHT22;9102;53.548;9.926;2023-04-21T07:43:50;11.70;99.90
17954;DHT22;9102;53.548;9.926;2023-04-21T07:46:17;11.90;99.90
17954;DHT22;9102;53.548;9.926;2023-04-21T07:48:46;11.90;99.90
17954;DHT22;9102;53.548;9.926;2023-04-21T07:51:12;12.00;99.90
17954;DHT22;9102;53.548;9.926;2023-04-21T07:53:42;12.10;99.90
17954;DHT22;9102;53.548;9.926;2023-04-21T07:56:09;12.20;99.90
17954;DHT22;9102;53.548;9.926;2023-04-21T07:58:40;12.30;99.90
17954;DHT22;9102;53.548;9.926;2023-04-21T08:01:06;12.40;99.90
17954;DHT22;9102;53.548;9.926;2023-04-21T08:03:33;12.40;99.90
17954;DHT22;9102;53.548;9.926;2023-04-21T08:06:00;12.50;99.90
17954;DHT22;9102;53.548;9.926;2023-04-21T08:08:27;12.50;99.90
17954;DHT22;9102;53.548;9.926;2023-04-21T08:10:54;12.60;99.90
17954;DHT22;9102;53.548;9.926;2023-04-21T08:13:21;12.60;99.90
17954;DHT22;9102;53.548;9.926;2023-04-21T08:15:51;12.80;99.90
17954;DHT22;9102;53.548;9.926;2023-04-21T08:18:19;12.90;99.90
17954;DHT22;9102;53.548;9.926;2023-04-21T08:20:47;13.00;99.90
17954;DHT22;9102;53.548;9.926;2023-04-21T08:23:14;13.00;99.90
17954;DHT22;9102;53.548;9.926;2023-04-21T08:25:41;13.10;99.90
17954;DHT22;9102;53.548;9.926;2023-04-21T08:28:10;13.20;99.90
17954;DHT22;9102;53.548;9.926;2023-04-21T08:30:38;13.30;99.90
17954;DHT22;9102;53.548;9.926;2023-04-21T08:33:06;13.30;99.90
17954;DHT22;9102;53.548;9.926;2023-04-21T08:35:38;13.30;99.90
17954;DHT22;9102;53.548;9.926;2023-04-21T08:38:04;13.40;99.90
17954;DHT22;9102;53.548;9.926;2023-04-21T08:40:34;13.50;99.90
17954;DHT22;9102;53.548;9.926;2023-04-21T08:43:03;13.60;99.90
17954;DHT22;9102;53.548;9.926;2023-04-21T08:45:30;13.80;99.90
17954;DHT22;9102;53.548;9.926;2023-04-21T08:47:58;13.80;99.90
17954;DHT22;9102;53.548;9.926;2023-04-21T08:50:28;14.00;99.90
17954;DHT22;9102;53.548;9.926;2023-04-21T08:52:56;14.00;99.90
17954;DHT22;9102;53.548;9.926;2023-04-21T08:55:25;14.10;99.90
17954;DHT22;9102;53.548;9.926;2023-04-21T08:57:52;14.10;99.90
17954;DHT22;9102;53.548;9.926;2023-04-21T09:00:19;14.20;99.90
17954;DHT22;9102;53.548;9.926;2023-04-21T09:02:54;14.20;99.90
17954;DHT22;9102;53.548;9.926;2023-04-21T09:05:22;14.30;99.90
17954;DHT22;9102;53.548;9.926;2023-04-21T09:07:53;14.30;99.90
17954;DHT22;9102;53.548;9.926;2023-04-21T09:10:32;14.40;99.90
17954;DHT22;9102;53.548;9.926;2023-04-21T09:13:05;14.50;99.90
17954;DHT22;9102;53.548;9.926;2023-04-21T09:15:37;14.60;99.90
17954;DHT22;9102;53.548;9.926;2023-04-21T09:18:10;14.70;99.90
17954;DHT22;9102;53.548;9.926;2023-04-21T09:20:37;14.80;99.90
17954;DHT22;9102;53.548;9.926;2023-04-21T09:23:06;14.90;99.90
17954;DHT22;9102;53.548;9.926;2023-04-21T09:25:34;14.90;99.90
17954;DHT22;9102;53.548;9.926;2023-04-21T09:28:06;15.00;99.90
17954;DHT22;9102;53.548;9.926;2023-04-21T09:30:34;15.20;99.90
17954;DHT22;9102;53.548;9.926;2023-04-21T09:33:01;15.30;99.90
17954;DHT22;9102;53.548;9.926;2023-04-21T09:35:28;15.40;99.90
17954;DHT22;9102;53.548;9.926;2023-04-21T09:37:56;15.40;99.90
17954;DHT22;9102;53.548;9.926;2023-04-21T09:40:24;15.50;99.90
17954;DHT22;9102;53.548;9.926;2023-04-21T09:42:51;15.60;99.90
17954;DHT22;9102;53.548;9.926;2023-04-21T09:45:18;15.70;99.90
17954;DHT22;9102;53.548;9.926;2023-04-21T09:47:49;15.80;99.90
17954;DHT22;9102;53.548;9.926;2023-04-21T09:50:18;15.90;99.90
17954;DHT22;9102;53.548;9.926;2023-04-21T09:52:49;15.90;99.90
17954;DHT22;9102;53.548;9.926;2023-04-21T09:55:17;16.10;99.90
17954;DHT22;9102;53.548;9.926;2023-04-21T09:57:47;16.10;99.90
17954;DHT22;9102;53.548;9.926;2023-04-21T10:00:14;16.30;99.90
17954;DHT22;9102;53.548;9.926;2023-04-21T10:02:47;16.40;99.90
17954;DHT22;9102;53.548;9.926;2023-04-21T10:05:14;16.50;99.90
17954;DHT22;9102;53.548;9.926;2023-04-21T10:07:42;16.60;99.90
17954;DHT22;9102;53.548;9.926;2023-04-21T10:10:18;16.70;99.90
17954;DHT22;9102;53.548;9.926;2023-04-21T10:12:47;16.70;99.90
17954;DHT22;9102;53.548;9.926;2023-04-21T10:15:29;16.80;99.90
17954;DHT22;9102;53.548;9.926;2023-04-21T10:18:10;16.80;99.90
17954;DHT22;9102;53.548;9.926;2023-04-21T10:20:50;16.90;99.90
17954;DHT22;9102;53.548;9.926;2023-04-21T10:23:36;17.00;99.90
17954;DHT22;9102;53.548;9.926;2023-04-21T10:26:05;17.10;99.00
17954;DHT22;9102;53.548;9.926;2023-04-21T10:28:46;17.20;98.50
17954;DHT22;9102;53.548;9.926;2023-04-21T10:31:19;17.10;99.50
17954;DHT22;9102;53.548;9.926;2023-04-21T10:34:11;17.20;99.50
17954;DHT22;9102;53.548;9.926;2023-04-21T10:36:42;17.20;99.90
17954;DHT22;9102;53.548;9.926;2023-04-21T10:39:24;17.40;99.40
17954;DHT22;9102;53.548;9.926;2023-04-21T10:41:54;17.30;98.60
17954;DHT22;9102;53.548;9.926;2023-04-21T10:44:27;17.40;98.60
17954;DHT22;9102;53.548;9.926;2023-04-21T10:46:57;17.60;98.10
17954;DHT22;9102;53.548;9.926;2023-04-21T10:49:26;17.70;98.10
17954;DHT22;9102;53.548;9.926;2023-04-21T10:52:04;17.70;97.60
17954;DHT22;9102;53.548;9.926;2023-04-21T10:54:37;17.90;97.60
17954;DHT22;9102;53.548;9.926;2023-04-21T10:57:07;17.90;97.10
17954;DHT22;9102;53.548;9.926;2023-04-21T10:59:37;18.00;96.70
17954;DHT22;9102;53.548;9.926;2023-04-21T11:02:04;18.20;96.00
17954;DHT22;9102;53.548;9.926;2023-04-21T11:04:32;18.30;96.10
17954;DHT22;9102;53.548;9.926;2023-04-21T11:07:06;18.50;95.50
17954;DHT22;9102;53.548;9.926;2023-04-21T11:09:34;18.50;94.50
17954;DHT22;9102;53.548;9.926;2023-04-21T11:12:04;18.60;94.90
17954;DHT22;9102;53.548;9.926;2023-04-21T11:14:32;18.50;92.40
17954;DHT22;9102;53.548;9.926;2023-04-21T11:17:01;18.60;91.70
17954;DHT22;9102;53.548;9.926;2023-04-21T11:19:30;18.50;90.00
17954;DHT22;9102;53.548;9.926;2023-04-21T11:21:57;18.70;90.10
17954;DHT22;9102;53.548;9.926;2023-04-21T11:24:24;18.60;90.80
17954;DHT22;9102;53.548;9.926;2023-04-21T11:26:51;18.60;91.20
17954;DHT22;9102;53.548;9.926;2023-04-21T11:29:18;18.70;91.20
17954;DHT22;9102;53.548;9.926;2023-04-21T11:31:45;18.70;91.30
17954;DHT22;9102;53.548;9.926;2023-04-21T11:34:19;18.80;91.00
17954;DHT22;9102;53.548;9.926;2023-04-21T11:36:47;18.80;88.00
17954;DHT22;9102;53.548;9.926;2023-04-21T11:39:16;18.90;87.60
17954;DHT22;9102;53.548;9.926;2023-04-21T11:41:46;18.90;87.00
17954;DHT22;9102;53.548;9.926;2023-04-21T11:44:13;19.00;86.00
17954;DHT22;9102;53.548;9.926;2023-04-21T11:46:55;19.00;84.30
17954;DHT22;9102;53.548;9.926;2023-04-21T11:49:26;19.00;84.80
17954;DHT22;9102;53.548;9.926;2023-04-21T11:51:55;18.90;82.70
17954;DHT22;9102;53.548;9.926;2023-04-21T11:54:22;19.00;83.70
17954;DHT22;9102;53.548;9.926;2023-04-21T11:56:53;19.10;83.30
17954;DHT22;9102;53.548;9.926;2023-04-21T11:59:22;19.20;82.00
17954;DHT22;9102;53.548;9.926;2023-04-21T12:01:52;19.30;81.60
17954;DHT22;9102;53.548;9.926;2023-04-21T12:04:25;19.30;81.30
17954;DHT22;9102;53.548;9.926;2023-04-21T12:06:55;19.50;81.30
17954;DHT22;9102;53.548;9.926;2023-04-21T12:09:28;19.60;81.30
17954;DHT22;9102;53.548;9.926;2023-04-21T12:11:56;19.50;80.20
17954;DHT22;9102;53.548;9.926;2023-04-21T12:14:32;19.40;80.80
17954;DHT22;9102;53.548;9.926;2023-04-21T12:16:59;19.30;80.20
17954;DHT22;9102;53.548;9.926;2023-04-21T12:19:36;19.40;81.40
17954;DHT22;9102;53.548;9.926;2023-04-21T12:22:09;19.50;79.70
17954;DHT22;9102;53.548;9.926;2023-04-21T12:24:40;19.60;78.40
17954;DHT22;9102;53.548;9.926;2023-04-21T12:27:11;19.70;78.30
17954;DHT22;9102;53.548;9.926;2023-04-21T12:29:39;19.70;76.30
17954;DHT22;9102;53.548;9.926;2023-04-21T12:32:10;19.60;75.80
17954;DHT22;9102;53.548;9.926;2023-04-21T12:34:41;19.60;73.50
17954;DHT22;9102;53.548;9.926;2023-04-21T12:37:10;19.70;71.60
17954;DHT22;9102;53.548;9.926;2023-04-21T12:39:37;19.60;66.50
17954;DHT22;9102;53.548;9.926;2023-04-21T12:42:05;19.70;67.00
17954;DHT22;9102;53.548;9.926;2023-04-21T12:44:32;19.70;66.20
17954;DHT22;9102;53.548;9.926;2023-04-21T12:47:00;19.80;67.20
17954;DHT22;9102;53.548;9.926;2023-04-21T12:49:27;19.80;66.70
17954;DHT22;9102;53.548;9.926;2023-04-21T12:51:57;19.90;67.00
17954;DHT22;9102;53.548;9.926;2023-04-21T12:54:24;19.90;66.20
17954;DHT22;9102;53.548;9.926;2023-04-21T12:56:54;19.90;66.20
17954;DHT22;9102;53.548;9.926;2023-04-21T12:59:24;19.90;67.00
17954;DHT22;9102;53.548;9.926;2023-04-21T13:02:01;20.00;65.20
17954;DHT22;9102;53.548;9.926;2023-04-21T13:04:45;19.90;62.70
17954;DHT22;9102;53.548;9.926;2023-04-21T13:07:15;19.90;63.90
17954;DHT22;9102;53.548;9.926;2023-04-21T13:09:48;19.70;64.90
17954;DHT22;9102;53.548;9.926;2023-04-21T13:12:15;19.80;65.70
17954;DHT22;9102;53.548;9.926;2023-04-21T13:14:48;19.70;66.20
17954;DHT22;9102;53.548;9.926;2023-04-21T13:17:32;19.70;66.80
17954;DHT22;9102;53.548;9.926;2023-04-21T13:20:13;19.90;66.60
17954;DHT22;9102;53.548;9.926;2023-04-21T13:22:54;20.00;65.70
17954;DHT22;9102;53.548;9.926;2023-04-21T13:25:31;20.10;65.90
17954;DHT22;9102;53.548;9.926;2023-04-21T13:28:01;20.20;66.70
17954;DHT22;9102;53.548;9.926;2023-04-21T13:30:29;20.30;65.70
17954;DHT22;9102;53.548;9.926;2023-04-21T13:32:59;20.30;63.90
17954;DHT22;9102;53.548;9.926;2023-04-21T13:35:30;20.30;63.90
17954;DHT22;9102;53.548;9.926;2023-04-21T13:38:11;20.20;64.40
17954;DHT22;9102;53.548;9.926;2023-04-21T13:40:38;20.20;65.30
17954;DHT22;9102;53.548;9.926;2023-04-21T13:43:07;20.20;65.00
17954;DHT22;9102;53.548;9.926;2023-04-21T13:45:34;20.30;65.90
17954;DHT22;9102;53.548;9.926;2023-04-21T13:48:04;20.30;65.00
17954;DHT22;9102;53.548;9.926;2023-04-21T13:50:32;20.10;65.20
17954;DHT22;9102;53.548;9.926;2023-04-21T13:53:10;20.10;65.90
17954;DHT22;9102;53.548;9.926;2023-04-21T13:55:46;20.20;66.30
17954;DHT22;9102;53.548;9.926;2023-04-21T13:58:18;20.30;65.80
17954;DHT22;9102;53.548;9.926;2023-04-21T14:00:46;20.40;65.80
17954;DHT22;9102;53.548;9.926;2023-04-21T14:03:15;20.50;64.80
17954;DHT22;9102;53.548;9.926;2023-04-21T14:05:51;20.50;64.70
17954;DHT22;9102;53.548;9.926;2023-04-21T14:08:20;20.50;64.20
17954;DHT22;9102;53.548;9.926;2023-04-21T14:10:48;20.50;64.20
17954;DHT22;9102;53.548;9.926;2023-04-21T14:13:14;20.50;64.70
17954;DHT22;9102;53.548;9.926;2023-04-21T14:15:47;20.60;65.10
17954;DHT22;9102;53.548;9.926;2023-04-21T14:18:32;20.40;65.00
17954;DHT22;9102;53.548;9.926;2023-04-21T14:21:04;20.40;65.40
17954;DHT22;9102;53.548;9.926;2023-04-21T14:23:45;20.10;65.70
17954;DHT22;9102;53.548;9.926;2023-04-21T14:26:12;19.90;65.40
17954;DHT22;9102;53.548;9.926;2023-04-21T14:28:39;19.90;66.10
17954;DHT22;9102;53.548;9.926;2023-04-21T14:31:06;19.80;66.30
17954;DHT22;9102;53.548;9.926;2023-04-21T14:33:33;19.90;66.80
17954;DHT22;9102;53.548;9.926;2023-04-21T14:36:00;20.20;67.00
17954;DHT22;9102;53.548;9.926;2023-04-21T14:38:27;20.30;65.60
17954;DHT22;9102;53.548;9.926;2023-04-21T14:40:56;20.40;65.40
17954;DHT22;9102;53.548;9.926;2023-04-21T14:43:24;20.40;65.60
17954;DHT22;9102;53.548;9.926;2023-04-21T14:45:51;20.20;65.90
17954;DHT22;9102;53.548;9.926;2023-04-21T14:48:18;19.90;65.50
17954;DHT22;9102;53.548;9.926;2023-04-21T14:50:45;19.80;66.40
17954;DHT22;9102;53.548;9.926;2023-04-21T14:53:12;19.70;66.40
17954;DHT22;9102;53.548;9.926;2023-04-21T14:55:39;19.50;66.40
17954;DHT22;9102;53.548;9.926;2023-04-21T14:58:07;19.40;67.40
17954;DHT22;9102;53.548;9.926;2023-04-21T15:00:34;19.50;68.20
17954;DHT22;9102;53.548;9.926;2023-04-21T15:03:02;19.50;68.10
17954;DHT22;9102;53.548;9.926;2023-04-21T15:05:29;19.60;68.60
17954;DHT22;9102;53.548;9.926;2023-04-21T15:08:09;19.60;68.70
17954;DHT22;9102;53.548;9.926;2023-04-21T15:10:40;19.70;68.90
17954;DHT22;9102;53.548;9.926;2023-04-21T15:13:08;19.80;68.60
17954;DHT22;9102;53.548;9.926;2023-04-21T15:15:35;19.80;66.70
17954;DHT22;9102;53.548;9.926;2023-04-21T15:18:02;19.80;66.90
17954;DHT22;9102;53.548;9.926;2023-04-21T15:20:29;19.80;66.70
17954;DHT22;9102;53.548;9.926;2023-04-21T15:22:56;19.80;67.40
17954;DHT22;9102;53.548;9.926;2023-04-21T15:25:25;19.90;68.10
17954;DHT22;9102;53.548;9.926;2023-04-21T15:27:52;20.00;68.10
17954;DHT22;9102;53.548;9.926;2023-04-21T15:30:20;19.80;67.40
17954;DHT22;9102;53.548;9.926;2023-04-21T15:32:47;19.70;67.70
17954;DHT22;9102;53.548;9.926;2023-04-21T15:35:14;19.60;68.10
17954;DHT22;9102;53.548;9.926;2023-04-21T15:37:40;19.50;68.40
17954;DHT22;9102;53.548;9.926;2023-04-21T15:40:08;19.40;68.00
17954;DHT22;9102;53.548;9.926;2023-04-21T15:42:35;19.50;68.30
17954;DHT22;9102;53.548;9.926;2023-04-21T15:45:03;19.50;68.40
17954;DHT22;9102;53.548;9.926;2023-04-21T15:47:31;19.50;68.00
17954;DHT22;9102;53.548;9.926;2023-04-21T15:49:58;19.50;68.40
17954;DHT22;9102;53.548;9.926;2023-04-21T15:52:25;19.50;68.60
17954;DHT22;9102;53.548;9.926;2023-04-21T15:54:53;19.40;68.90
17954;DHT22;9102;53.548;9.926;2023-04-21T15:57:20;19.50;69.60
17954;DHT22;9102;53.548;9.926;2023-04-21T15:59:48;19.60;69.00
17954;DHT22;9102;53.548;9.926;2023-04-21T16:02:15;19.60;68.10
17954;DHT22;9102;53.548;9.926;2023-04-21T16:04:43;19.50;68.20